Agana Heights, GU

6:18 PM ChST on August 20, 2014 (GMT +1000)
Andersen Air Force Base | Change Station
CLOSE
Current Station
Airport
Location: Andersen AFB,
Elevation: 614 ft
Nearby Weather Stations

Elev 614 ft 13.58 °N, 144.93 °E | Updated 20 minutes ago

Scattered Clouds
Scattered Clouds
80 °F
Feels Like 84 °F
N
2
Wind Variable Wind from WSW

Today
High -- | Low -- °F
--% Chance of Precip.
Yesterday
High -- | Low -- °F
Precip. -- in
6:08 AM 6:40 PM
Waning Crescent, 23% visible
Pressure 29.79 in
Visibility 10.0 miles
Clouds Scattered Clouds 17000 ft
Heat Index 84 °F
Dew Point 73 °F
Humidity 79%
Rainfall 1.00 in
Snow Depth Not available.
UV 0 out of 12
Pollen Not available.
Air Quality Not available.
Flu Activity Not available.
METAR PGUA 200758Z AUTO 25002KT 10SM SCT170 27/23 A2982 RMK AO2 SLP088 T02670228 $

More Conditions Fewer Conditions

Pressure 29.79 in
Visibility 10.0 miles
Clouds Scattered Clouds 17000 ft
Heat Index 84 °F
Dew Point 73 °F
Humidity 79%
Rainfall 1.00 in
Snow Depth Not available.
UV 0 out of 12
Pollen Not available.
Air Quality Not available.
Flu Activity Not available.
METAR PGUA 200758Z AUTO 25002KT 10SM SCT170 27/23 A2982 RMK AO2 SLP088 T02670228 $

More Conditions Fewer Conditions

10-Day Weather Forecast

Almanac

Astronomy

Aug. 20, 2014 Rise Set
Actual Time 6:08 AM ChST 6:40 PM ChST
Civil Twilight 5:46 AM ChST 7:01 PM ChST
Nautical Twilight 5:21 AM ChST 7:27 PM ChST
Astronomical Twilight 4:55 AM ChST 7:53 PM ChST
Moon 1:34 AM ChST 2:36 PM ChST
Length of Visible Light 13h 15m
Length of Day
12h 31m
Tomorrow will be 0m 41s shorter.
Waning Crescent, 23% of the Moon is Illuminated
Today
Waning Crescent
Aug 25
New
Sep 2
First Quarter
Sep 8
Full
Sep 15
Last Quarter

Community

WunderPhotos

Upload Photos

1,745,601 photos uploaded!

Nearby

Snow Depth

Station Depth Elevation
No new snow has been reported.

Earthquake Activity

City Distance Mag. Time & Date
No recent earthquake activity has been reported nearby.
Minimum magnitude displayed is 2.5.

Coastal Water Temperatures

Place Temperature
No Stations Reporting

Nearby Weather Stations